Time;durP1;ratioP1;P1;durP2;ratioP2;P2;SDS_P1;SDS_P2;PMS_P1;PMS_P2;Temp;Humidity;BMP_temperature;BMP_pressure;BME280_temperature;BME280_humidity;BME280_pressure;Samples;Min_cycle;Max_cycle;Signal;HPM_P1;HPM_P2
2022/05/13 00:01:19;;;;;;;18.02;4.38;;;12.10;75.90;;;;;;5019613;28;20446;-85
2022/05/13 00:03:45;;;;;;;14.55;4.13;;;12.00;75.90;;;;;;5022272;28;20044;-84
2022/05/13 00:06:11;;;;;;;13.75;3.63;;;12.00;76.10;;;;;;5022871;28;20173;-85
2022/05/13 00:08:37;;;;;;;15.48;4.82;;;12.00;76.10;;;;;;5027351;28;20121;-86
2022/05/13 00:11:04;;;;;;;13.82;4.18;;;12.00;76.40;;;;;;5028127;28;20030;-85
2022/05/13 00:13:30;;;;;;;14.00;4.05;;;12.00;76.20;;;;;;5032136;28;20067;-84
2022/05/13 00:15:57;;;;;;;14.70;4.85;;;11.90;76.40;;;;;;5022213;28;20030;-86
2022/05/13 00:18:22;;;;;;;14.43;4.32;;;11.90;76.60;;;;;;5015523;28;20113;-86
2022/05/13 00:20:48;;;;;;;12.05;4.00;;;11.90;76.70;;;;;;5032361;28;20033;-87
2022/05/13 00:23:14;;;;;;;13.68;3.95;;;11.90;76.60;;;;;;5027359;28;20053;-85
2022/05/13 00:25:41;;;;;;;17.67;4.35;;;11.90;76.50;;;;;;5032488;28;20025;-86
2022/05/13 00:28:09;;;;;;;15.07;4.30;;;11.90;76.60;;;;;;5037880;28;20388;-86
2022/05/13 00:30:38;;;;;;;13.35;4.28;;;11.90;76.60;;;;;;5035009;28;20021;-85
2022/05/13 00:33:04;;;;;;;16.90;4.63;;;11.90;76.70;;;;;;5022293;28;20463;-83
2022/05/13 00:35:30;;;;;;;13.32;4.13;;;11.90;76.90;;;;;;5023381;28;20482;-84
2022/05/13 00:37:56;;;;;;;14.30;3.83;;;12.00;76.70;;;;;;5025592;28;20468;-88
2022/05/13 00:40:23;;;;;;;16.25;4.63;;;11.90;77.00;;;;;;5036420;28;20136;-86
2022/05/13 00:42:50;;;;;;;16.98;4.30;;;11.90;77.20;;;;;;5035546;28;20060;-85
2022/05/13 00:45:17;;;;;;;13.88;4.40;;;11.90;77.20;;;;;;5014319;28;20037;-85
2022/05/13 00:47:44;;;;;;;12.73;4.68;;;11.90;77.30;;;;;;5050615;28;20029;-86
2022/05/13 00:50:12;;;;;;;14.63;4.70;;;11.90;77.00;;;;;;5041455;28;20482;-86
2022/05/13 00:52:41;;;;;;;14.93;4.65;;;11.90;77.00;;;;;;5016577;28;20037;-84
2022/05/13 00:55:11;;;;;;;18.27;4.55;;;11.80;77.30;;;;;;5029135;28;20063;-88
2022/05/13 00:57:39;;;;;;;14.95;4.18;;;11.90;77.30;;;;;;5024386;28;20030;-86
2022/05/13 01:00:11;;;;;;;16.05;3.95;;;11.80;77.60;;;;;;5021553;28;20461;-89
2022/05/13 01:02:37;;;;;;;18.13;4.15;;;11.80;77.30;;;;;;5017847;28;20044;-89
2022/05/13 01:05:06;;;;;;;17.90;4.18;;;11.80;77.60;;;;;;5006660;28;20049;-86
2022/05/13 01:07:33;;;;;;;15.10;4.18;;;11.80;77.90;;;;;;5028594;28;20072;-87
2022/05/13 01:10:02;;;;;;;15.68;4.47;;;11.80;78.00;;;;;;5025017;28;20047;-87
2022/05/13 01:12:32;;;;;;;15.05;3.90;;;11.70;78.10;;;;;;5020392;28;20033;-87
2022/05/13 01:15:06;;;;;;;17.20;4.15;;;11.70;78.30;;;;;;5007678;28;20693;-88
2022/05/13 01:20:24;;;;;;;16.95;4.45;;;11.60;78.90;;;;;;5022107;28;22285;-87
2022/05/13 01:22:58;;;;;;;14.80;4.50;;;11.60;79.30;;;;;;5014129;28;20030;-86
2022/05/13 01:25:26;;;;;;;17.50;4.88;;;11.60;79.30;;;;;;5025425;28;20089;-86
2022/05/13 01:27:54;;;;;;;12.38;4.43;;;11.50;79.80;;;;;;5010733;28;20041;-87
2022/05/13 01:30:25;;;;;;;19.73;5.13;;;11.50;79.90;;;;;;5024770;28;20038;-86
2022/05/13 01:32:51;;;;;;;15.50;4.90;;;11.40;80.40;;;;;;5020492;28;20060;-86
2022/05/13 01:35:17;;;;;;;16.65;4.63;;;11.50;80.30;;;;;;5021219;28;20630;-86
2022/05/13 01:37:43;;;;;;;14.18;4.25;;;11.50;80.60;;;;;;5028410;28;20121;-85
2022/05/13 01:40:09;;;;;;;16.20;4.90;;;11.60;80.30;;;;;;5028412;28;20057;-86
2022/05/13 01:42:36;;;;;;;19.52;5.70;;;11.50;80.70;;;;;;5027618;28;20528;-86
2022/05/13 01:45:03;;;;;;;15.57;4.75;;;11.50;80.70;;;;;;5031387;28;20042;-86
2022/05/13 01:47:29;;;;;;;18.70;5.50;;;11.60;80.70;;;;;;5027620;28;20033;-87
2022/05/13 01:49:55;;;;;;;16.20;4.88;;;11.50;80.80;;;;;;5025895;28;20033;-87
2022/05/13 01:52:21;;;;;;;13.07;4.38;;;11.50;80.70;;;;;;5029111;28;20042;-87
2022/05/13 01:54:47;;;;;;;19.48;4.70;;;11.60;80.70;;;;;;5022233;28;20111;-86
2022/05/13 01:57:13;;;;;;;19.10;4.93;;;11.60;80.50;;;;;;5028821;28;20034;-87
2022/05/13 01:59:39;;;;;;;19.02;5.57;;;11.60;80.50;;;;;;5023158;28;20642;-85
2022/05/13 02:02:05;;;;;;;14.07;5.15;;;11.60;80.40;;;;;;5030637;28;20091;-86
2022/05/13 02:04:31;;;;;;;18.48;5.93;;;11.70;80.30;;;;;;5035749;28;20048;-88
2022/05/13 02:06:57;;;;;;;22.92;5.53;;;11.70;80.20;;;;;;5019672;28;20064;-87
2022/05/13 02:09:23;;;;;;;19.98;5.03;;;11.80;80.10;;;;;;5041758;28;20113;-86
2022/05/13 02:11:49;;;;;;;15.75;5.65;;;11.80;80.10;;;;;;5032715;28;20504;-86
2022/05/13 02:14:17;;;;;;;13.13;4.53;;;11.80;80.20;;;;;;5033411;28;20053;-86
2022/05/13 02:16:43;;;;;;;19.23;6.10;;;11.80;80.50;;;;;;5031346;28;20051;-86
2022/05/13 02:19:09;;;;;;;15.82;5.63;;;11.90;80.10;;;;;;5018848;28;20048;-86
2022/05/13 02:21:36;;;;;;;19.60;5.63;;;11.90;80.20;;;;;;5027753;28;20041;-86
2022/05/13 02:24:02;;;;;;;17.10;5.55;;;11.90;80.20;;;;;;5022980;28;20094;-85
2022/05/13 02:26:27;;;;;;;19.35;5.90;;;12.00;80.40;;;;;;5023325;28;20037;-84
2022/05/13 02:28:53;;;;;;;15.77;5.05;;;11.90;80.60;;;;;;5019044;28;20058;-85
2022/05/13 02:31:19;;;;;;;15.30;5.38;;;11.90;80.70;;;;;;5023442;28;20040;-85
2022/05/13 02:33:45;;;;;;;15.27;4.80;;;12.00;80.50;;;;;;5012741;28;20038;-84
2022/05/13 02:36:12;;;;;;;19.48;5.72;;;12.00;80.30;;;;;;5016710;28;20052;-86
2022/05/13 02:38:38;;;;;;;20.48;5.25;;;12.00;80.10;;;;;;5019566;28;20065;-85
2022/05/13 02:41:13;;;;;;;21.80;5.70;;;12.10;80.20;;;;;;5025627;28;20049;-86
2022/05/13 02:43:40;;;;;;;19.60;5.68;;;12.10;80.30;;;;;;5012205;28;20851;-84
2022/05/13 02:46:06;;;;;;;19.15;5.80;;;12.10;80.00;;;;;;5027685;28;20156;-87
2022/05/13 02:48:32;;;;;;;17.17;5.50;;;12.10;80.30;;;;;;5016268;28;20053;-85
2022/05/13 02:50:58;;;;;;;19.70;5.68;;;12.10;80.50;;;;;;5031766;28;20465;-85
2022/05/13 02:53:25;;;;;;;20.95;5.13;;;12.10;80.60;;;;;;5029132;28;20124;-86
2022/05/13 02:55:50;;;;;;;16.75;6.00;;;12.10;80.50;;;;;;5022759;28;20103;-86
2022/05/13 02:58:16;;;;;;;16.75;5.53;;;12.10;80.60;;;;;;5029854;28;20620;-86
2022/05/13 03:00:44;;;;;;;18.90;5.38;;;12.10;80.50;;;;;;5024943;28;20994;-87
2022/05/13 03:03:10;;;;;;;19.48;5.80;;;12.10;80.50;;;;;;5015101;28;20050;-88
2022/05/13 03:05:37;;;;;;;19.13;5.85;;;12.20;80.30;;;;;;5018900;28;20045;-86
2022/05/13 03:08:03;;;;;;;19.17;5.90;;;12.10;80.60;;;;;;5019040;28;20033;-86
2022/05/13 03:10:29;;;;;;;18.92;6.85;;;12.10;80.60;;;;;;5037286;28;20064;-86
2022/05/13 03:12:56;;;;;;;19.50;5.93;;;12.10;80.60;;;;;;5030034;28;20044;-85
2022/05/13 03:15:22;;;;;;;19.48;5.28;;;12.10;80.70;;;;;;5022016;28;20086;-86
2022/05/13 03:17:49;;;;;;;19.58;5.22;;;12.10;80.50;;;;;;5020611;28;20034;-85
2022/05/13 03:20:17;;;;;;;21.98;5.82;;;12.10;80.80;;;;;;5028894;28;20036;-85
2022/05/13 03:22:44;;;;;;;21.92;6.38;;;12.00;81.10;;;;;;5020536;28;20176;-86
2022/05/13 03:25:10;;;;;;;16.02;5.72;;;12.00;81.20;;;;;;5017224;28;20045;-86
2022/05/13 03:27:36;;;;;;;17.70;6.22;;;12.00;81.30;;;;;;5018981;28;20041;-86
2022/05/13 03:30:02;;;;;;;21.60;7.18;;;12.00;81.20;;;;;;5016786;28;20033;-86
2022/05/13 03:32:28;;;;;;;18.25;6.35;;;11.90;81.20;;;;;;5034554;28;20042;-87
2022/05/13 03:34:54;;;;;;;17.17;6.20;;;11.90;81.40;;;;;;5038768;28;20056;-87
2022/05/13 03:37:20;;;;;;;21.70;6.63;;;11.80;81.60;;;;;;5017085;28;20154;-87
2022/05/13 03:39:45;;;;;;;20.77;6.93;;;11.80;81.70;;;;;;5028434;28;20072;-87
2022/05/13 03:42:11;;;;;;;18.92;7.70;;;11.70;82.20;;;;;;5017939;28;20074;-87
2022/05/13 03:44:37;;;;;;;22.42;7.57;;;11.60;82.40;;;;;;5020372;28;20042;-85
2022/05/13 03:47:05;;;;;;;19.15;7.18;;;11.60;82.20;;;;;;5016958;28;20045;-86
2022/05/13 03:49:32;;;;;;;21.75;7.43;;;11.60;82.50;;;;;;5024921;28;20042;-88
2022/05/13 03:51:58;;;;;;;23.88;8.10;;;11.60;82.50;;;;;;5019758;28;20049;-86
2022/05/13 03:54:23;;;;;;;24.30;8.48;;;11.50;82.60;;;;;;5020922;28;20045;-87
2022/05/13 03:56:49;;;;;;;17.10;7.57;;;11.50;82.90;;;;;;5027518;28;20096;-86
2022/05/13 03:59:15;;;;;;;20.35;8.38;;;11.50;82.80;;;;;;5026634;28;20048;-87
2022/05/13 04:01:41;;;;;;;20.20;7.32;;;11.50;83.10;;;;;;5022439;28;20116;-85
2022/05/13 04:04:07;;;;;;;21.55;8.30;;;11.50;83.30;;;;;;5024095;28;20041;-85
2022/05/13 04:09:17;;;;;;;21.48;9.02;;;11.50;83.00;;;;;;5015412;28;20056;-85
2022/05/13 04:16:04;;;;;;;16.70;7.32;;;11.50;83.00;;;;;;5023396;28;20033;-86
2022/05/13 04:17:17;;;;;;;22.33;7.47;;;11.40;83.30;;;;;;5015854;28;20164;-87
2022/05/13 04:19:42;;;;;;;16.83;7.00;;;11.50;83.10;;;;;;5033047;28;20123;-87
2022/05/13 04:22:09;;;;;;;21.27;7.70;;;11.50;82.90;;;;;;5030133;28;20030;-84
2022/05/13 04:24:35;;;;;;;22.02;7.03;;;11.50;82.90;;;;;;5026054;28;20065;-87
2022/05/13 04:27:00;;;;;;;19.73;7.85;;;11.50;83.00;;;;;;5031709;28;20811;-86
2022/05/13 04:29:26;;;;;;;18.25;7.38;;;11.60;82.80;;;;;;5030639;28;20033;-84
2022/05/13 04:31:52;;;;;;;19.60;7.20;;;11.50;82.90;;;;;;5022754;28;20037;-85
2022/05/13 04:34:17;;;;;;;24.58;7.13;;;11.60;82.60;;;;;;5014538;28;20111;-86
2022/05/13 04:36:43;;;;;;;17.73;6.53;;;11.60;82.40;;;;;;5026154;28;20033;-85
2022/05/13 04:39:09;;;;;;;20.58;7.28;;;11.60;82.50;;;;;;5016028;28;20183;-87
2022/05/13 04:44:19;;;;;;;17.77;6.88;;;11.60;82.80;;;;;;5020649;28;20052;-86
2022/05/13 04:46:46;;;;;;;23.13;6.78;;;11.70;82.80;;;;;;5017899;28;20481;-83
2022/05/13 04:49:11;;;;;;;20.52;6.68;;;11.80;82.70;;;;;;5014533;28;20065;-85
2022/05/13 04:51:37;;;;;;;23.33;7.85;;;11.80;82.30;;;;;;5021817;28;20065;-85
2022/05/13 04:54:04;;;;;;;21.00;7.18;;;11.80;82.00;;;;;;5019797;28;20046;-84
2022/05/13 04:56:30;;;;;;;16.73;6.63;;;12.00;82.10;;;;;;5021780;28;20046;-85
2022/05/13 04:58:57;;;;;;;19.52;6.85;;;12.00;81.90;;;;;;5027581;28;20037;-86
2022/05/13 05:01:23;;;;;;;22.20;6.80;;;12.00;81.50;;;;;;5029505;28;20041;-86
2022/05/13 05:03:49;;;;;;;20.52;6.75;;;12.10;81.30;;;;;;5022066;28;20107;-85
2022/05/13 05:06:17;;;;;;;19.05;6.50;;;12.10;81.10;;;;;;5018985;28;20434;-84
2022/05/13 05:08:44;;;;;;;17.63;6.22;;;12.10;81.00;;;;;;5005309;28;20072;-87
2022/05/13 05:11:12;;;;;;;21.55;6.78;;;12.10;81.00;;;;;;5020123;28;20034;-85
2022/05/13 05:13:58;;;;;;;18.67;5.70;;;12.20;80.70;;;;;;5025067;28;20559;-82
2022/05/13 05:16:25;;;;;;;20.15;6.03;;;12.30;80.50;;;;;;5026039;28;20048;-85
2022/05/13 05:18:51;;;;;;;18.52;6.35;;;12.40;80.10;;;;;;5022083;28;20390;-82
2022/05/13 05:21:17;;;;;;;18.50;6.22;;;12.60;79.70;;;;;;5018867;28;20053;-83
2022/05/13 05:23:44;;;;;;;19.40;6.35;;;12.70;79.20;;;;;;5011549;28;20100;-84
2022/05/13 05:26:11;;;;;;;16.48;5.32;;;12.90;78.90;;;;;;4996349;28;20105;-85
2022/05/13 05:28:37;;;;;;;22.70;5.90;;;13.10;77.80;;;;;;5016537;28;20470;-83
2022/05/13 05:31:04;;;;;;;18.23;5.18;;;13.50;76.80;;;;;;5035500;28;20037;-85
2022/05/13 05:33:30;;;;;;;20.38;4.65;;;13.70;75.70;;;;;;5039278;28;20029;-85
2022/05/13 05:35:56;;;;;;;20.25;5.72;;;13.70;75.10;;;;;;5031211;28;20026;-88
2022/05/13 05:38:23;;;;;;;17.20;5.00;;;13.50;75.50;;;;;;5031924;28;20474;-88
2022/05/13 05:40:49;;;;;;;18.35;5.07;;;13.50;76.20;;;;;;5034624;28;20049;-85
2022/05/13 05:43:16;;;;;;;22.17;6.25;;;13.50;75.80;;;;;;5034809;28;20063;-84
2022/05/13 05:45:43;;;;;;;19.52;5.78;;;13.40;76.30;;;;;;5034437;28;20033;-86
2022/05/13 05:48:10;;;;;;;21.58;6.22;;;13.30;76.00;;;;;;5022645;28;20038;-85
2022/05/13 05:50:36;;;;;;;20.02;5.82;;;13.50;76.40;;;;;;5020227;28;20041;-83
2022/05/13 05:53:02;;;;;;;15.63;4.93;;;13.70;75.40;;;;;;5019550;28;20044;-85
2022/05/13 05:58:15;;;;;;;19.52;5.50;;;13.80;74.50;;;;;;5030653;28;20045;-85
2022/05/13 06:00:45;;;;;;;15.23;4.60;;;13.30;76.00;;;;;;5031324;28;20037;-84
2022/05/13 06:03:11;;;;;;;17.83;5.32;;;13.40;76.10;;;;;;5033082;28;20033;-83
2022/05/13 06:05:37;;;;;;;21.17;5.85;;;13.50;76.00;;;;;;5024514;28;20044;-85
2022/05/13 06:08:05;;;;;;;16.00;5.70;;;13.60;75.80;;;;;;5025012;28;20435;-86
2022/05/13 06:10:32;;;;;;;15.52;5.55;;;13.60;75.40;;;;;;5023657;28;20049;-82
2022/05/13 06:12:57;;;;;;;16.15;5.25;;;13.30;76.50;;;;;;5012645;28;20708;-84
2022/05/13 06:15:24;;;;;;;17.38;5.50;;;13.50;76.40;;;;;;5008250;28;20643;-83
2022/05/13 06:17:53;;;;;;;18.15;6.18;;;13.50;76.60;;;;;;5009446;28;20488;-84
2022/05/13 06:20:21;;;;;;;17.23;6.10;;;13.60;76.00;;;;;;5007938;28;20941;-84
2022/05/13 06:22:47;;;;;;;15.23;5.78;;;13.60;75.60;;;;;;5005081;28;20042;-82
2022/05/13 06:25:15;;;;;;;18.50;6.03;;;13.70;75.30;;;;;;5006056;28;20052;-81
2022/05/13 06:27:42;;;;;;;17.73;5.80;;;13.60;76.10;;;;;;5002883;28;20033;-84
2022/05/13 06:30:14;;;;;;;15.98;4.93;;;13.70;76.00;;;;;;5010326;28;20056;-82
2022/05/13 06:32:40;;;;;;;15.35;5.25;;;13.90;75.20;;;;;;5014949;28;20046;-82
2022/05/13 06:35:06;;;;;;;17.73;5.40;;;13.70;75.70;;;;;;5018635;28;20489;-85
2022/05/13 06:37:32;;;;;;;13.70;4.35;;;13.70;76.00;;;;;;5041278;28;20026;-84
2022/05/13 06:39:57;;;;;;;18.05;5.57;;;13.90;75.40;;;;;;5034277;28;20132;-86
2022/05/13 06:42:23;;;;;;;15.50;5.30;;;14.10;74.70;;;;;;5015962;28;20038;-84
2022/05/13 06:44:49;;;;;;;16.70;5.78;;;14.30;74.20;;;;;;5013430;28;20049;-85
2022/05/13 06:47:15;;;;;;;18.67;4.90;;;14.40;73.40;;;;;;5009097;28;20116;-86
2022/05/13 06:49:42;;;;;;;17.05;5.60;;;14.40;73.70;;;;;;5012746;28;20041;-82
2022/05/13 06:52:13;;;;;;;15.02;5.03;;;14.70;73.30;;;;;;5019349;28;20649;-85
2022/05/13 06:54:40;;;;;;;15.35;5.35;;;14.70;72.40;;;;;;5017035;28;20034;-82
2022/05/13 06:57:06;;;;;;;15.70;4.88;;;14.90;72.00;;;;;;5026327;28;20163;-85
2022/05/13 06:59:31;;;;;;;16.10;4.30;;;15.20;71.40;;;;;;5009114;28;20112;-83
2022/05/13 07:01:57;;;;;;;16.00;5.95;;;15.40;70.00;;;;;;5009005;28;20143;-84
2022/05/13 07:04:23;;;;;;;19.50;5.50;;;15.50;70.00;;;;;;5015729;28;20041;-84
2022/05/13 07:06:48;;;;;;;18.83;4.57;;;15.50;70.50;;;;;;5024271;28;20033;-85
2022/05/13 07:09:14;;;;;;;14.60;4.90;;;15.40;69.70;;;;;;5017503;28;20064;-83
2022/05/13 07:11:40;;;;;;;16.63;5.65;;;15.60;68.90;;;;;;5006320;28;20049;-83
2022/05/13 07:14:05;;;;;;;19.85;5.10;;;15.80;68.30;;;;;;5013905;28;20061;-83
2022/05/13 07:16:31;;;;;;;13.23;4.15;;;15.60;68.70;;;;;;5012900;28;20358;-83
2022/05/13 07:18:57;;;;;;;14.00;4.60;;;15.70;67.90;;;;;;5008870;28;20042;-81
2022/05/13 07:21:22;;;;;;;16.80;4.55;;;15.80;68.10;;;;;;5016405;28;20486;-83
2022/05/13 07:23:48;;;;;;;14.77;5.00;;;15.40;68.20;;;;;;5004271;28;20095;-84
2022/05/13 07:26:13;;;;;;;14.38;4.57;;;15.40;68.50;;;;;;5009194;28;20076;-83
2022/05/13 07:28:39;;;;;;;15.35;4.70;;;15.50;68.60;;;;;;5012611;28;20036;-84
2022/05/13 07:31:07;;;;;;;14.27;5.00;;;15.80;67.70;;;;;;5009083;28;20112;-83
2022/05/13 07:33:33;;;;;;;13.57;4.90;;;16.00;67.20;;;;;;5001988;28;20034;-81
2022/05/13 07:35:58;;;;;;;11.55;4.18;;;16.20;66.10;;;;;;5016366;28;20354;-82
2022/05/13 07:38:27;;;;;;;12.48;4.85;;;16.30;64.90;;;;;;5017619;28;20042;-81
2022/05/13 07:43:37;;;;;;;14.80;4.97;;;16.40;65.30;;;;;;5016687;28;20427;-81
2022/05/13 07:46:03;;;;;;;14.27;5.47;;;16.70;65.20;;;;;;5012401;28;20037;-85
2022/05/13 07:48:30;;;;;;;12.95;5.47;;;16.70;64.00;;;;;;5025401;28;20663;-84
2022/05/13 07:50:55;;;;;;;12.63;4.32;;;17.00;63.40;;;;;;5023468;28;20128;-85
2022/05/13 07:53:21;;;;;;;11.80;4.63;;;17.00;62.40;;;;;;5016780;28;20045;-83
2022/05/13 07:55:48;;;;;;;12.13;4.32;;;17.30;61.40;;;;;;5018437;28;20065;-82
2022/05/13 07:58:16;;;;;;;13.63;4.25;;;17.50;61.80;;;;;;5013088;28;20144;-82
2022/05/13 08:00:43;;;;;;;17.25;4.15;;;17.90;60.10;;;;;;5030427;28;20293;-83
2022/05/13 08:03:12;;;;;;;10.18;3.40;;;17.80;60.80;;;;;;5037187;28;20035;-84
2022/05/13 08:05:50;;;;;;;11.90;3.83;;;17.60;60.30;;;;;;5017197;28;20037;-82
2022/05/13 08:08:26;;;;;;;12.85;3.75;;;17.70;59.10;;;;;;5015383;28;20045;-84
2022/05/13 08:10:55;;;;;;;10.55;3.70;;;18.00;58.50;;;;;;5015210;28;20442;-84
2022/05/13 08:13:23;;;;;;;12.18;3.60;;;17.60;59.60;;;;;;5014816;28;20429;-83
2022/05/13 08:15:49;;;;;;;11.38;3.83;;;17.50;58.10;;;;;;5025105;28;20022;-83
2022/05/13 08:18:17;;;;;;;10.82;3.13;;;17.20;59.30;;;;;;5016041;28;20156;-85
2022/05/13 08:20:45;;;;;;;8.90;3.28;;;17.10;60.20;;;;;;5031474;28;20061;-82
2022/05/13 08:23:10;;;;;;;13.35;4.45;;;17.10;60.10;;;;;;5028697;28;20560;-84
2022/05/13 08:25:37;;;;;;;12.30;3.88;;;17.00;59.20;;;;;;5021269;28;20029;-85
2022/05/13 08:28:06;;;;;;;10.88;3.58;;;16.50;61.00;;;;;;5026589;28;20227;-85
2022/05/13 08:30:31;;;;;;;9.07;3.22;;;16.60;61.90;;;;;;5034596;28;20124;-85
2022/05/13 08:33:01;;;;;;;11.35;3.25;;;16.90;59.70;;;;;;5032930;28;20061;-85
2022/05/13 08:35:27;;;;;;;13.52;3.45;;;16.70;59.60;;;;;;5020108;28;20120;-80
2022/05/13 08:37:55;;;;;;;11.57;3.28;;;16.60;60.60;;;;;;5021413;28;20033;-83
2022/05/13 08:40:52;;;;;;;12.82;3.42;;;16.80;60.10;;;;;;5019977;28;20057;-84
2022/05/13 08:43:30;;;;;;;11.85;2.95;;;17.40;59.00;;;;;;5007899;28;20064;-87
2022/05/13 08:46:12;;;;;;;10.38;2.60;;;18.10;57.80;;;;;;5019865;28;20088;-87
2022/05/13 08:48:53;;;;;;;11.98;2.90;;;17.70;56.90;;;;;;5024267;28;20369;-84
2022/05/13 08:51:55;;;;;;;12.13;2.67;;;17.30;56.90;;;;;;5010278;28;20045;-82
2022/05/13 08:54:26;;;;;;;11.60;3.42;;;17.30;58.30;;;;;;5024988;28;20050;-82
2022/05/13 08:57:00;;;;;;;8.40;2.72;;;17.70;57.30;;;;;;5019576;28;20350;-83
2022/05/13 08:59:44;;;;;;;10.30;3.13;;;17.90;56.00;;;;;;5007662;28;20049;-80
2022/05/13 09:02:18;;;;;;;9.75;2.45;;;18.00;55.80;;;;;;5013473;28;20053;-81
2022/05/13 09:04:51;;;;;;;12.75;2.63;;;17.90;56.20;;;;;;5028486;28;20056;-82
2022/05/13 09:07:20;;;;;;;9.15;2.80;;;17.90;55.20;;;;;;5016845;28;20042;-82
2022/05/13 09:09:52;;;;;;;8.88;2.50;;;18.10;54.60;;;;;;5013868;28;20132;-84
2022/05/13 09:12:27;;;;;;;9.35;2.80;;;18.30;54.60;;;;;;5023579;28;20092;-82
2022/05/13 09:14:59;;;;;;;9.93;2.67;;;18.50;54.80;;;;;;5018897;28;20046;-80
2022/05/13 09:17:28;;;;;;;10.30;2.17;;;18.60;53.10;;;;;;5024158;28;20040;-82
2022/05/13 09:20:10;;;;;;;9.73;2.45;;;18.10;53.20;;;;;;5022108;28;20033;-83
2022/05/13 09:22:41;;;;;;;8.77;2.67;;;18.10;54.50;;;;;;5011718;28;20048;-81
2022/05/13 09:25:14;;;;;;;9.70;2.50;;;18.50;54.10;;;;;;5018273;28;20124;-83
2022/05/13 09:27:56;;;;;;;8.88;2.80;;;18.50;53.40;;;;;;5025689;28;20056;-82
2022/05/13 09:30:27;;;;;;;12.18;2.78;;;18.30;54.00;;;;;;5024988;28;20098;-85
2022/05/13 09:32:53;;;;;;;7.25;2.17;;;18.20;54.40;;;;;;5015847;28;20535;-83
2022/05/13 09:35:35;;;;;;;7.88;2.40;;;18.60;53.80;;;;;;5016244;28;20081;-82
2022/05/13 09:38:23;;;;;;;10.13;2.90;;;18.30;53.90;;;;;;5009066;28;20109;-83
2022/05/13 09:41:06;;;;;;;8.80;2.15;;;18.20;54.10;;;;;;5016228;28;20049;-84
2022/05/13 09:43:44;;;;;;;8.60;2.60;;;18.40;54.30;;;;;;5011294;28;20424;-82
2022/05/13 09:46:22;;;;;;;7.80;2.22;;;18.30;54.40;;;;;;5019876;28;20493;-83
2022/05/13 09:49:01;;;;;;;9.40;2.80;;;19.00;52.00;;;;;;5013397;28;20409;-82
2022/05/13 09:51:37;;;;;;;8.23;2.60;;;19.30;50.10;;;;;;5021360;28;20506;-84
2022/05/13 09:54:16;;;;;;;8.18;2.30;;;18.70;50.90;;;;;;5020880;28;20509;-81
2022/05/13 09:56:49;;;;;;;8.45;2.70;;;18.70;52.20;;;;;;5015359;28;20124;-82
2022/05/13 09:59:24;;;;;;;9.35;2.25;;;18.60;52.10;;;;;;5013582;28;20068;-83
2022/05/13 10:01:51;;;;;;;10.88;2.13;;;18.90;51.80;;;;;;5013713;28;20049;-82
2022/05/13 10:04:26;;;;;;;10.38;2.33;;;19.10;51.40;;;;;;5012162;28;20133;-85
2022/05/13 10:07:08;;;;;;;7.13;1.70;;;19.00;51.40;;;;;;5026181;28;20034;-84
2022/05/13 10:15:38;;;;;;;8.85;2.40;;;19.00;50.70;;;;;;5017287;28;20555;-83
2022/05/13 10:18:23;;;;;;;7.60;2.00;;;19.60;50.10;;;;;;5007828;28;20143;-84
2022/05/13 10:20:54;;;;;;;9.60;1.90;;;20.00;47.90;;;;;;5007136;28;20124;-83
2022/05/13 10:23:28;;;;;;;6.85;2.05;;;19.70;48.90;;;;;;5014529;28;21018;-82
2022/05/13 10:26:19;;;;;;;11.65;2.30;;;19.60;49.00;;;;;;5012103;28;20034;-82
2022/05/13 10:28:57;;;;;;;8.13;2.17;;;19.40;49.90;;;;;;5020126;28;20378;-83
2022/05/13 10:31:27;;;;;;;5.45;1.63;;;19.20;50.60;;;;;;5010135;28;20064;-83
2022/05/13 10:33:59;;;;;;;5.28;1.63;;;19.40;49.30;;;;;;5005484;28;20397;-82
2022/05/13 10:36:43;;;;;;;7.68;2.33;;;19.30;49.20;;;;;;5021818;28;20044;-88
2022/05/13 10:39:30;;;;;;;7.15;1.92;;;19.60;49.60;;;;;;5007015;28;20060;-83
2022/05/13 10:41:59;;;;;;;7.43;2.03;;;19.50;48.00;;;;;;5006335;28;20094;-82
2022/05/13 10:45:07;;;;;;;8.95;2.28;;;19.50;48.00;;;;;;5005652;28;20045;-85
2022/05/13 10:47:40;;;;;;;7.70;1.88;;;19.40;48.10;;;;;;5023822;28;20052;-81
2022/05/13 10:50:17;;;;;;;9.93;2.10;;;19.00;49.40;;;;;;5017931;28;20045;-83
2022/05/13 10:53:24;;;;;;;8.18;2.15;;;19.30;49.50;;;;;;5004364;28;20065;-82
2022/05/13 10:56:10;;;;;;;7.38;1.80;;;19.80;47.60;;;;;;5006069;28;20030;-83
2022/05/13 10:58:58;;;;;;;8.20;2.13;;;20.40;46.90;;;;;;5003569;28;20125;-84
2022/05/13 11:01:40;;;;;;;7.90;1.90;;;20.30;46.20;;;;;;4998669;28;20050;-83
2022/05/13 11:04:29;;;;;;;7.50;2.17;;;20.30;45.70;;;;;;5004901;28;20136;-84
2022/05/13 11:07:21;;;;;;;7.85;2.13;;;20.10;45.50;;;;;;5005399;28;20034;-82
2022/05/13 11:09:58;;;;;;;9.48;2.55;;;20.40;45.00;;;;;;5007424;28;20029;-82
2022/05/13 11:12:58;;;;;;;8.23;2.05;;;20.50;45.20;;;;;;5003898;28;20192;-83
2022/05/13 11:15:49;;;;;;;7.45;1.88;;;20.80;44.50;;;;;;5002141;28;20127;-82
2022/05/13 11:18:42;;;;;;;6.82;1.90;;;21.30;44.30;;;;;;5001466;28;20046;-84
2022/05/13 11:21:17;;;;;;;6.50;1.73;;;21.50;43.30;;;;;;5000318;28;20543;-83
2022/05/13 11:27:42;;;;;;;6.45;1.95;;;22.40;42.60;;;;;;5004917;28;20056;-82
2022/05/13 11:30:16;;;;;;;10.02;2.55;;;22.60;41.80;;;;;;5005829;28;20401;-84
2022/05/13 11:33:05;;;;;;;;;;;22.60;41.90;;;;;;5008413;28;20041;-84
2022/05/13 11:35:49;;;;;;;7.18;1.67;;;22.10;41.50;;;;;;4989095;28;19917;-83
2022/05/13 11:38:21;;;;;;;8.70;1.88;;;21.80;41.90;;;;;;5012708;28;20680;-83
2022/05/13 11:40:52;;;;;;;9.88;2.20;;;21.90;41.60;;;;;;5012171;28;20057;-84
2022/05/13 11:43:39;;;;;;;9.85;2.05;;;22.10;42.20;;;;;;5008822;28;20599;-83
2022/05/13 11:46:20;;;;;;;6.90;2.08;;;22.00;41.70;;;;;;5008423;28;20136;-83
2022/05/13 11:48:55;;;;;;;6.20;1.98;;;22.10;41.50;;;;;;5020379;28;20055;-83
2022/05/13 11:51:24;;;;;;;;;;;22.60;41.50;;;;;;5019370;28;20057;-82
2022/05/13 11:54:01;;;;;;;9.25;2.15;;;22.20;42.10;;;;;;5008679;28;20378;-86
2022/05/13 11:56:28;;;;;;;9.65;2.70;;;21.80;41.40;;;;;;5009314;28;20470;-87
2022/05/13 11:59:31;;;;;;;8.07;2.25;;;21.60;42.30;;;;;;5012356;28;20045;-86
2022/05/13 12:02:38;;;;;;;9.88;2.00;;;21.20;44.00;;;;;;5011654;28;20615;-86
2022/05/13 12:05:18;;;;;;;9.95;2.38;;;20.80;44.70;;;;;;4995679;28;20041;-84
2022/05/13 12:07:55;;;;;;;9.93;2.47;;;21.00;44.60;;;;;;5021246;28;20663;-85
2022/05/13 12:10:36;;;;;;;8.13;2.40;;;20.40;45.40;;;;;;5035889;28;20075;-85
2022/05/13 12:13:15;;;;;;;10.80;2.30;;;20.40;46.10;;;;;;5029292;28;20068;-83
2022/05/13 12:16:02;;;;;;;8.27;2.10;;;20.80;45.50;;;;;;5012448;28;20045;-85
2022/05/13 12:18:38;;;;;;;6.65;1.70;;;21.10;43.30;;;;;;5014472;28;20668;-85
2022/05/13 12:21:36;;;;;;;10.88;2.38;;;21.20;43.20;;;;;;5014934;28;20048;-85
2022/05/13 12:24:05;;;;;;;10.98;2.22;;;21.30;43.50;;;;;;5002604;28;20501;-82
2022/05/13 12:27:10;;;;;;;9.13;2.00;;;21.40;43.70;;;;;;5012543;28;20531;-83
2022/05/13 12:29:55;;;;;;;6.60;2.22;;;21.30;44.40;;;;;;5011027;28;20045;-85
2022/05/13 12:32:46;;;;;;;7.45;1.80;;;21.30;44.20;;;;;;5014926;28;20126;-85
2022/05/13 12:38:10;;;;;;;11.35;2.63;;;20.80;44.40;;;;;;5014820;28;20232;-86
2022/05/13 12:40:51;;;;;;;7.82;1.98;;;21.00;44.40;;;;;;5023178;28;20053;-86
2022/05/13 12:43:32;;;;;;;8.88;2.15;;;21.60;44.10;;;;;;5022408;28;20051;-84
2022/05/13 12:46:19;;;;;;;7.93;2.00;;;21.60;43.00;;;;;;5012422;28;20032;-85
2022/05/13 12:49:02;;;;;;;6.32;1.80;;;21.50;43.20;;;;;;5011916;28;20034;-84
2022/05/13 12:51:46;;;;;;;7.85;2.35;;;21.80;43.50;;;;;;5010620;28;20751;-84
2022/05/13 12:54:18;;;;;;;7.95;1.90;;;22.00;42.30;;;;;;5024694;28;20702;-83
2022/05/13 12:56:53;;;;;;;8.95;2.10;;;21.80;43.70;;;;;;5024065;28;20041;-84
2022/05/13 12:59:41;;;;;;;8.40;2.72;;;21.20;44.00;;;;;;5018309;28;20359;-84
2022/05/13 13:02:09;;;;;;;9.48;2.03;;;21.20;43.80;;;;;;5007017;28;20045;-87
2022/05/13 13:04:44;;;;;;;8.13;1.73;;;21.00;44.40;;;;;;5007642;28;20164;-83
2022/05/13 13:07:13;;;;;;;10.73;2.08;;;21.10;45.10;;;;;;5015944;28;20958;-83
2022/05/13 13:09:44;;;;;;;7.22;1.90;;;21.60;44.10;;;;;;5013597;28;20049;-83
2022/05/13 13:12:10;;;;;;;10.80;2.08;;;22.20;42.80;;;;;;5012027;28;20049;-83
2022/05/13 13:15:01;;;;;;;12.80;2.67;;;22.20;42.80;;;;;;5010062;28;20829;-83
2022/05/13 13:17:39;;;;;;;9.77;2.58;;;22.30;42.40;;;;;;5013607;28;20125;-84
2022/05/13 13:20:09;;;;;;;5.63;2.13;;;21.60;43.70;;;;;;5020049;28;20038;-83
2022/05/13 13:22:42;;;;;;;10.63;2.47;;;21.30;44.50;;;;;;5025957;28;20041;-87
2022/05/13 13:25:28;;;;;;;6.68;1.80;;;21.60;44.30;;;;;;5017984;28;20067;-85
2022/05/13 13:27:57;;;;;;;6.63;1.55;;;21.50;43.60;;;;;;5012089;28;20038;-85
2022/05/13 13:30:24;;;;;;;7.40;1.50;;;21.70;43.00;;;;;;5011001;28;20129;-87